Time;durP1;ratioP1;P1;durP2;ratioP2;P2;SDS_P1;SDS_P2;PMS_P1;PMS_P2;Temp;Humidity;BMP_temperature;BMP_pressure;BME280_temperature;BME280_humidity;BME280_pressure;Samples;Min_cycle;Max_cycle;Signal;HPM_P1;HPM_P2
2023/02/20 00:00:16;;;;;;;;;;;;;;;26.04;24.04;100531.06;5067307;28;1032;-19
2023/02/20 00:02:41;;;;;;;;;;;;;;;26.01;23.78;100531.41;5073446;28;1139;-19
2023/02/20 00:05:06;;;;;;;;;;;;;;;25.96;24.02;100529.25;5056696;28;1136;-18
2023/02/20 00:07:32;;;;;;;;;;;;;;;25.70;24.26;100529.63;5062055;28;1238;-19
2023/02/20 00:09:57;;;;;;;;;;;;;;;26.50;23.75;100538.25;5067187;28;1024;-19
2023/02/20 00:12:22;;;;;;;;;;;;;;;26.01;23.85;100526.84;5063924;28;1221;-19
2023/02/20 00:14:48;;;;;;;;;;;;;;;25.74;24.51;100526.38;5076941;28;1103;-19
2023/02/20 00:17:13;;;;;;;;;;;;;;;26.24;23.95;100523.28;5072690;28;1945;-19
2023/02/20 00:19:38;;;;;;;;;;;;;;;26.52;23.32;100528.13;5064438;28;1121;-19
2023/02/20 00:22:03;;;;;;;;;;;;;;;26.78;23.33;100525.97;5059907;28;1131;-18
2023/02/20 00:24:29;;;;;;;;;;;;;;;26.76;23.21;100511.81;5056739;28;1206;-18
2023/02/20 00:26:54;;;;;;;;;;;;;;;26.49;23.35;100519.56;5056410;28;1048;-18
2023/02/20 00:29:20;;;;;;;;;;;;;;;25.95;24.06;100513.25;5066527;28;1091;-18
2023/02/20 00:31:52;;;;;;;;;;;;;;;26.19;23.64;100509.53;5062644;28;1075;-18
2023/02/20 00:34:17;;;;;;;;;;;;;;;25.80;24.16;100495.19;5076893;28;1179;-19
2023/02/20 00:36:43;;;;;;;;;;;;;;;25.63;24.23;100500.69;5064696;28;1127;-18
2023/02/20 00:39:08;;;;;;;;;;;;;;;26.03;24.25;100521.28;5048387;28;1961;-19
2023/02/20 00:41:33;;;;;;;;;;;;;;;26.58;23.61;100514.91;5059837;28;1163;-19
2023/02/20 00:43:58;;;;;;;;;;;;;;;26.78;23.14;100509.78;5066616;28;998;-19
2023/02/20 00:46:24;;;;;;;;;;;;;;;26.95;22.84;100510.44;5055974;28;1135;-19
2023/02/20 00:48:49;;;;;;;;;;;;;;;26.27;23.29;100506.75;5056637;28;1043;-18
2023/02/20 00:51:15;;;;;;;;;;;;;;;25.82;24.22;100520.09;5059429;28;1083;-18
2023/02/20 00:53:40;;;;;;;;;;;;;;;25.99;24.20;100534.28;5067151;28;1024;-19
2023/02/20 00:56:05;;;;;;;;;;;;;;;25.88;24.03;100532.00;5069113;28;1145;-19
2023/02/20 00:58:31;;;;;;;;;;;;;;;25.65;24.42;100540.94;5065303;28;1969;-19
2023/02/20 01:00:56;;;;;;;;;;;;;;;26.27;23.81;100547.22;5060492;28;1118;-19
2023/02/20 01:03:21;;;;;;;;;;;;;;;26.42;23.68;100535.63;5056413;28;1068;-18
2023/02/20 01:05:46;;;;;;;;;;;;;;;26.78;23.20;100545.72;5069444;28;1051;-18
2023/02/20 01:08:12;;;;;;;;;;;;;;;26.83;23.13;100563.19;5057257;28;1225;-19
2023/02/20 01:10:37;;;;;;;;;;;;;;;26.34;23.62;100554.59;5069947;28;1088;-19
2023/02/20 01:13:02;;;;;;;;;;;;;;;25.91;24.15;100559.44;5064921;28;1035;-19
2023/02/20 01:15:28;;;;;;;;;;;;;;;25.91;24.05;100558.59;5074398;28;1214;-19
2023/02/20 01:17:53;;;;;;;;;;;;;;;25.78;24.28;100568.13;5064004;28;1905;-19
2023/02/20 01:20:18;;;;;;;;;;;;;;;25.68;24.50;100568.34;5074403;28;1074;-19
2023/02/20 01:22:43;;;;;;;;;;;;;;;26.37;23.57;100571.25;5055833;28;1174;-19
2023/02/20 01:25:09;;;;;;;;;;;;;;;26.68;23.53;100573.97;5056382;28;1140;-18
2023/02/20 01:27:34;;;;;;;;;;;;;;;26.84;23.30;100578.38;5055948;28;1203;-18
2023/02/20 01:29:59;;;;;;;;;;;;;;;26.88;22.96;100574.28;5072076;28;1020;-19
2023/02/20 01:32:25;;;;;;;;;;;;;;;26.54;23.44;100579.19;5071409;28;904;-19
2023/02/20 01:34:50;;;;;;;;;;;;;;;25.99;23.77;100571.19;5060309;28;1076;-19
2023/02/20 01:37:16;;;;;;;;;;;;;;;26.43;23.79;100576.91;5071472;28;1957;-19
2023/02/20 01:39:42;;;;;;;;;;;;;;;26.62;23.14;100571.03;5061196;28;1183;-19
2023/02/20 01:42:07;;;;;;;;;;;;;;;26.02;23.90;100578.91;5072009;28;1091;-19
2023/02/20 01:44:33;;;;;;;;;;;;;;;25.97;24.29;100578.59;5055352;28;1025;-19
2023/02/20 01:46:59;;;;;;;;;;;;;;;26.52;23.68;100592.03;5059139;28;1202;-19
2023/02/20 01:49:33;;;;;;;;;;;;;;;26.73;23.39;100585.06;5061069;28;1230;-19
2023/02/20 01:52:09;;;;;;;;;;;;;;;26.61;23.38;100574.72;5079938;28;1044;-19
2023/02/20 01:54:35;;;;;;;;;;;;;;;26.17;23.67;100578.97;5062488;28;1103;-19
2023/02/20 01:57:00;;;;;;;;;;;;;;;25.97;24.14;100557.06;5044662;28;1906;-18
2023/02/20 01:59:26;;;;;;;;;;;;;;;26.69;23.45;100581.91;5058214;28;1020;-19
2023/02/20 02:01:51;;;;;;;;;;;;;;;26.63;23.41;100579.94;5050941;28;1118;-19
2023/02/20 02:04:17;;;;;;;;;;;;;;;26.10;23.84;100576.16;5059390;28;1120;-19
2023/02/20 02:06:43;;;;;;;;;;;;;;;26.05;24.13;100583.94;5059628;28;1333;-19
2023/02/20 02:09:13;;;;;;;;;;;;;;;26.39;23.82;100590.75;5051433;28;1048;-19
2023/02/20 02:11:38;;;;;;;;;;;;;;;26.82;23.02;100588.53;5041710;28;1131;-19
2023/02/20 02:14:04;;;;;;;;;;;;;;;26.62;23.26;100583.66;5072854;28;1072;-18
2023/02/20 02:16:32;;;;;;;;;;;;;;;26.24;23.78;100589.88;5041328;28;1294;-19
2023/02/20 02:19:16;;;;;;;;;;;;;;;26.13;24.25;100591.13;5059015;28;1961;-19
2023/02/20 02:21:47;;;;;;;;;;;;;;;26.60;23.39;100580.31;5062734;28;910;-19
2023/02/20 02:24:21;;;;;;;;;;;;;;;26.78;23.20;100579.94;5066524;28;1436;-19
2023/02/20 02:27:05;;;;;;;;;;;;;;;26.16;23.72;100582.66;5045602;28;1088;-18
2023/02/20 02:29:49;;;;;;;;;;;;;;;25.84;24.22;100598.06;5069747;28;945;-19
2023/02/20 02:32:26;;;;;;;;;;;;;;;25.11;24.57;100599.06;5064194;28;1017;-20
2023/02/20 02:35:10;;;;;;;;;;;;;;;24.62;25.09;100568.53;5065300;28;1079;-19
2023/02/20 02:38:05;;;;;;;;;;;;;;;25.35;24.74;100594.56;5058977;28;1947;-19
2023/02/20 02:40:42;;;;;;;;;;;;;;;25.59;24.75;100582.84;5049779;28;1267;-19
2023/02/20 02:43:13;;;;;;;;;;;;;;;26.15;23.74;100589.94;5071316;28;1123;-19
2023/02/20 02:45:42;;;;;;;;;;;;;;;25.79;24.32;100587.84;5063848;28;951;-19
2023/02/20 02:48:08;;;;;;;;;;;;;;;25.52;24.93;100588.13;5053744;28;1245;-19
2023/02/20 02:50:35;;;;;;;;;;;;;;;25.87;24.51;100613.88;5069217;28;1059;-19
2023/02/20 02:53:01;;;;;;;;;;;;;;;26.27;23.65;100620.00;5043066;28;1147;-19
2023/02/20 02:55:27;;;;;;;;;;;;;;;25.85;24.09;100619.44;5040762;28;1152;-18
2023/02/20 02:57:52;;;;;;;;;;;;;;;25.55;24.51;100619.22;5053309;28;1961;-19
2023/02/20 03:00:20;;;;;;;;;;;;;;;25.53;24.60;100613.19;5058083;28;1185;-18
2023/02/20 03:02:55;;;;;;;;;;;;;;;25.51;24.60;100612.50;5071484;28;1028;-19
2023/02/20 03:05:21;;;;;;;;;;;;;;;25.47;24.67;100613.88;5053632;28;1124;-18
2023/02/20 03:07:47;;;;;;;;;;;;;;;25.44;24.95;100612.41;5072168;28;1105;-18
2023/02/20 03:10:19;;;;;;;;;;;;;;;25.39;24.93;100620.16;5063995;28;833;-18
2023/02/20 03:12:47;;;;;;;;;;;;;;;25.37;24.89;100624.88;5041546;28;949;-18
2023/02/20 03:15:33;;;;;;;;;;;;;;;25.26;25.08;100632.28;5054183;28;1138;-18
2023/02/20 03:18:14;;;;;;;;;;;;;;;25.17;25.08;100622.59;5052593;28;1951;-19
2023/02/20 03:20:41;;;;;;;;;;;;;;;25.09;25.20;100628.81;5075376;28;1111;-19
2023/02/20 03:23:07;;;;;;;;;;;;;;;25.19;25.06;100640.22;5059921;28;1124;-18
2023/02/20 03:25:36;;;;;;;;;;;;;;;25.28;25.05;100657.19;5054948;28;1119;-19
2023/02/20 03:28:05;;;;;;;;;;;;;;;25.22;24.95;100665.97;5039956;28;1223;-19
2023/02/20 03:30:35;;;;;;;;;;;;;;;25.09;25.09;100684.50;5052946;28;1100;-18
2023/02/20 03:44:01;;;;;;;;;;;;;;;25.10;25.08;100722.00;5055578;28;1469;-20
2023/02/20 03:46:26;;;;;;;;;;;;;;;25.15;25.06;100727.72;5046131;28;946;-19
2023/02/20 03:48:53;;;;;;;;;;;;;;;25.08;24.98;100732.09;5057732;28;1048;-20
2023/02/20 03:51:18;;;;;;;;;;;;;;;25.02;25.19;100739.03;5068921;28;1078;-18
2023/02/20 03:53:43;;;;;;;;;;;;;;;25.04;25.13;100765.75;5059841;28;1171;-18
2023/02/20 03:56:09;;;;;;;;;;;;;;;25.10;25.14;100773.16;5065356;28;1055;-19
2023/02/20 03:58:36;;;;;;;;;;;;;;;25.09;25.08;100784.09;5062864;28;1902;-19
2023/02/20 04:01:01;;;;;;;;;;;;;;;25.00;25.25;100783.25;5047548;28;1571;-19
2023/02/20 04:03:27;;;;;;;;;;;;;;;25.00;25.29;100792.16;5052077;28;1049;-19
2023/02/20 04:05:53;;;;;;;;;;;;;;;24.89;25.39;100790.59;5039270;28;1132;-19
2023/02/20 04:08:25;;;;;;;;;;;;;;;24.85;25.42;100796.50;5045283;28;1154;-19
2023/02/20 04:10:51;;;;;;;;;;;;;;;24.86;25.27;100785.56;5063931;28;1114;-19
2023/02/20 04:13:17;;;;;;;;;;;;;;;25.01;25.40;100777.69;5052083;28;1095;-19
2023/02/20 04:15:42;;;;;;;;;;;;;;;24.80;25.84;100786.22;5062748;28;1069;-19
2023/02/20 04:18:12;;;;;;;;;;;;;;;24.67;25.87;100775.97;5070858;28;1971;-19
2023/02/20 04:20:37;;;;;;;;;;;;;;;24.19;24.72;100781.91;5058183;28;1521;-19
2023/02/20 04:23:07;;;;;;;;;;;;;;;23.21;26.30;100793.50;5049155;28;1433;-20
2023/02/20 04:25:36;;;;;;;;;;;;;;;23.19;25.66;100800.06;5076279;28;1249;-20
2023/02/20 04:28:02;;;;;;;;;;;;;;;23.45;24.44;100813.53;5057199;28;1091;-20
2023/02/20 04:30:27;;;;;;;;;;;;;;;23.49;24.07;100822.09;5058893;28;1124;-21
2023/02/20 04:32:53;;;;;;;;;;;;;;;23.26;24.51;100824.41;5065768;28;1074;-19
2023/02/20 04:35:18;;;;;;;;;;;;;;;23.35;25.08;100826.16;5041692;28;1333;-19
2023/02/20 04:37:44;;;;;;;;;;;;;;;22.05;24.75;100827.97;5070042;28;1944;-20
2023/02/20 04:40:10;;;;;;;;;;;;;;;22.33;25.39;100829.81;5076037;28;1039;-20
2023/02/20 04:42:36;;;;;;;;;;;;;;;24.92;22.99;100851.38;5066874;28;929;-19
2023/02/20 04:45:01;;;;;;;;;;;;;;;25.64;22.63;100839.09;5058106;28;2555;-20
2023/02/20 04:47:26;;;;;;;;;;;;;;;25.96;22.30;100852.66;5056030;28;968;-19
2023/02/20 04:49:52;;;;;;;;;;;;;;;26.02;22.46;100857.41;5056376;28;1132;-20
2023/02/20 04:52:17;;;;;;;;;;;;;;;26.13;22.19;100850.78;5055685;28;1119;-20
2023/02/20 04:54:42;;;;;;;;;;;;;;;26.54;21.99;100859.75;5055402;28;1107;-20
2023/02/20 04:57:07;;;;;;;;;;;;;;;26.64;21.32;100867.63;5068757;28;1906;-19
2023/02/20 04:59:33;;;;;;;;;;;;;;;26.90;21.29;100870.00;5056349;28;1206;-20
2023/02/20 05:02:00;;;;;;;;;;;;;;;27.00;21.23;100866.22;5056423;28;1067;-19
2023/02/20 05:04:26;;;;;;;;;;;;;;;27.09;21.61;100872.44;5055692;28;1071;-19
2023/02/20 05:06:51;;;;;;;;;;;;;;;27.39;21.43;100873.34;5069447;28;984;-19
2023/02/20 05:09:17;;;;;;;;;;;;;;;26.71;21.63;100878.53;5063954;28;1005;-19
2023/02/20 05:11:42;;;;;;;;;;;;;;;26.25;22.33;100877.34;5062187;28;1026;-19
2023/02/20 05:14:08;;;;;;;;;;;;;;;27.06;21.46;100891.69;5058727;28;1928;-19
2023/02/20 05:16:33;;;;;;;;;;;;;;;27.56;20.92;100894.00;5055617;28;1059;-19
2023/02/20 05:19:01;;;;;;;;;;;;;;;27.89;20.55;100895.56;5055696;28;1965;-19
2023/02/20 05:24:11;;;;;;;;;;;;;;;26.36;22.67;100912.06;5055223;28;1215;-18
2023/02/20 05:26:36;;;;;;;;;;;;;;;26.48;22.27;100908.97;5068663;28;1043;-19
2023/02/20 05:29:01;;;;;;;;;;;;;;;26.69;22.36;100910.25;5075765;28;1096;-19
2023/02/20 05:31:27;;;;;;;;;;;;;;;27.08;21.61;100912.09;5062203;28;1094;-19
2023/02/20 05:33:52;;;;;;;;;;;;;;;27.79;20.87;100923.72;5075444;28;1099;-19
2023/02/20 05:36:17;;;;;;;;;;;;;;;27.96;20.73;100931.69;5067079;28;1055;-19
2023/02/20 05:38:46;;;;;;;;;;;;;;;26.44;22.60;100937.34;5055733;28;1965;-19
2023/02/20 05:41:13;;;;;;;;;;;;;;;25.98;23.19;100939.59;5072240;28;1155;-19
2023/02/20 05:43:38;;;;;;;;;;;;;;;26.34;23.01;100948.31;5071616;28;2299;-19
2023/02/20 05:46:03;;;;;;;;;;;;;;;26.31;22.87;100965.66;5059303;28;1175;-19
2023/02/20 05:48:29;;;;;;;;;;;;;;;27.56;21.59;100964.25;5055242;28;1088;-19
2023/02/20 05:50:54;;;;;;;;;;;;;;;27.93;21.09;100975.28;5073276;28;1033;-20
2023/02/20 05:53:19;;;;;;;;;;;;;;;28.01;20.65;100975.19;5065049;28;1047;-19
2023/02/20 05:55:45;;;;;;;;;;;;;;;28.10;20.68;100987.63;5055164;28;1104;-19
2023/02/20 05:58:10;;;;;;;;;;;;;;;27.42;21.06;101004.53;5065529;28;1965;-19
2023/02/20 06:00:35;;;;;;;;;;;;;;;26.88;22.85;101009.69;5058566;28;1055;-19
2023/02/20 06:03:00;;;;;;;;;;;;;;;26.69;23.02;101024.44;5065269;28;1036;-17
2023/02/20 06:06:20;;;;;;;;;;;;;;;28.01;21.47;101037.41;5102430;27;1340;-25
2023/02/20 06:08:46;;;;;;;;;;;;;;;28.13;21.80;101058.63;5093009;28;1040;-25
2023/02/20 06:11:11;;;;;;;;;;;;;;;28.56;21.22;101069.72;5093038;28;934;-26
2023/02/20 06:13:40;;;;;;;;;;;;;;;26.39;23.24;101078.13;5089563;28;2395;-26
2023/02/20 06:16:06;;;;;;;;;;;;;;;26.16;24.20;101095.78;5088189;28;1286;-23
2023/02/20 06:18:31;;;;;;;;;;;;;;;28.39;21.72;101095.25;5093143;28;996;-27
2023/02/20 06:20:56;;;;;;;;;;;;;;;28.73;21.29;101107.44;5092076;28;1062;-26
2023/02/20 06:23:22;;;;;;;;;;;;;;;28.09;22.12;101115.75;5076343;28;1168;-25
2023/02/20 06:25:47;;;;;;;;;;;;;;;27.53;22.67;101113.25;5091062;28;1981;-21
2023/02/20 06:28:12;;;;;;;;;;;;;;;27.26;23.61;101103.53;5084959;28;995;-21
2023/02/20 06:30:37;;;;;;;;;;;;;;;27.03;24.32;101100.75;5092466;28;1040;-21
2023/02/20 06:33:03;;;;;;;;;;;;;;;28.26;21.34;101109.38;5079201;28;981;-20
2023/02/20 06:35:28;;;;;;;;;;;;;;;28.55;20.42;101110.50;5086259;28;1085;-20
2023/02/20 06:37:53;;;;;;;;;;;;;;;28.66;19.60;101111.94;5092587;28;1000;-20
2023/02/20 06:40:19;;;;;;;;;;;;;;;27.83;19.77;101118.81;5082004;28;1055;-20
2023/02/20 06:42:44;;;;;;;;;;;;;;;27.17;18.55;101128.91;5072700;28;972;-20
2023/02/20 06:45:10;;;;;;;;;;;;;;;26.26;19.92;101135.22;5071731;28;2105;-20
2023/02/20 06:47:35;;;;;;;;;;;;;;;27.33;20.34;101121.75;5085053;28;1156;-20
2023/02/20 06:50:00;;;;;;;;;;;;;;;28.17;19.90;101122.97;5074118;28;1176;-19
2023/02/20 06:52:26;;;;;;;;;;;;;;;28.66;19.92;101122.75;5085518;28;1207;-19
2023/02/20 06:54:53;;;;;;;;;;;;;;;27.68;20.61;101126.81;5083014;28;1199;-19
2023/02/20 06:57:18;;;;;;;;;;;;;;;26.82;21.43;101122.91;5081302;28;1166;-19
2023/02/20 06:59:46;;;;;;;;;;;;;;;26.46;22.19;101134.94;5081344;28;1183;-20
2023/02/20 07:02:11;;;;;;;;;;;;;;;27.79;21.62;101139.97;5076080;28;1247;-20
2023/02/20 07:04:37;;;;;;;;;;;;;;;28.45;20.85;101137.81;5075828;28;1910;-20
2023/02/20 07:07:02;;;;;;;;;;;;;;;28.42;20.95;101141.75;5085988;28;1227;-21
2023/02/20 07:09:28;;;;;;;;;;;;;;;28.94;20.87;101135.66;5087901;28;1257;-20
2023/02/20 07:11:53;;;;;;;;;;;;;;;27.81;21.66;101142.50;5084821;28;1368;-19
2023/02/20 07:14:19;;;;;;;;;;;;;;;27.16;22.40;101150.69;5067332;28;1244;-20
2023/02/20 07:16:44;;;;;;;;;;;;;;;27.05;23.16;101154.59;5053434;28;1584;-20
2023/02/20 07:19:09;;;;;;;;;;;;;;;27.56;22.72;101162.34;5069581;28;1258;-20
2023/02/20 07:21:34;;;;;;;;;;;;;;;27.97;22.56;101161.31;5068209;28;1195;-19
2023/02/20 07:24:00;;;;;;;;;;;;;;;27.97;22.40;101164.03;5071590;28;1898;-20
2023/02/20 07:26:26;;;;;;;;;;;;;;;27.29;22.86;101172.59;5058424;28;1064;-20
2023/02/20 07:28:52;;;;;;;;;;;;;;;27.15;23.48;101168.75;5067527;28;1036;-20
2023/02/20 07:31:17;;;;;;;;;;;;;;;27.09;23.06;101172.16;5076278;28;1044;-20
2023/02/20 07:33:43;;;;;;;;;;;;;;;26.88;23.05;101187.84;5067615;28;1508;-20
2023/02/20 07:36:09;;;;;;;;;;;;;;;27.12;23.62;101196.94;5053976;28;1125;-20
2023/02/20 07:38:34;;;;;;;;;;;;;;;27.26;23.56;101198.09;5070215;28;1219;-20
2023/02/20 07:40:59;;;;;;;;;;;;;;;27.43;23.13;101195.31;5074708;28;1302;-20
2023/02/20 07:43:25;;;;;;;;;;;;;;;26.62;24.38;101205.06;5064405;28;1055;-20
2023/02/20 07:45:50;;;;;;;;;;;;;;;26.67;24.77;101204.56;5064225;28;1969;-20
2023/02/20 07:48:15;;;;;;;;;;;;;;;27.36;24.66;101208.69;5072413;28;1215;-20
2023/02/20 07:50:40;;;;;;;;;;;;;;;27.09;24.73;101205.38;5077328;28;1182;-19
2023/02/20 07:53:06;;;;;;;;;;;;;;;27.90;24.66;101221.69;5075415;28;1277;-19
2023/02/20 07:55:31;;;;;;;;;;;;;;;28.48;23.66;101218.63;5065501;28;1323;-19
2023/02/20 07:57:57;;;;;;;;;;;;;;;27.57;24.00;101226.19;5076528;28;1218;-19
2023/02/20 08:00:22;;;;;;;;;;;;;;;27.30;24.22;101230.16;5057610;28;849;-19
2023/02/20 08:02:48;;;;;;;;;;;;;;;27.94;23.72;101239.25;5059757;28;1064;-19
2023/02/20 08:05:13;;;;;;;;;;;;;;;28.30;23.47;101227.88;5066789;28;1918;-19
2023/02/20 08:07:42;;;;;;;;;;;;;;;28.78;23.20;101236.84;5076603;28;1218;-19
2023/02/20 08:10:07;;;;;;;;;;;;;;;28.07;23.23;101244.94;5040685;28;1423;-19
2023/02/20 08:12:32;;;;;;;;;;;;;;;27.61;23.81;101241.03;5066560;28;1335;-19
2023/02/20 08:14:58;;;;;;;;;;;;;;;27.09;25.45;101243.19;5064507;28;1103;-19
2023/02/20 08:17:23;;;;;;;;;;;;;;;26.42;26.08;101242.31;5063413;28;1239;-19
2023/02/20 08:19:48;;;;;;;;;;;;;;;26.69;26.00;101251.13;5072000;28;1110;-19
2023/02/20 08:22:13;;;;;;;;;;;;;;;27.09;24.08;101255.84;5071901;28;1270;-20
2023/02/20 08:24:39;;;;;;;;;;;;;;;27.32;24.25;101255.13;5074872;28;1902;-19
2023/02/20 08:27:04;;;;;;;;;;;;;;;26.82;25.33;101258.72;5074870;28;1294;-19
2023/02/20 08:29:29;;;;;;;;;;;;;;;26.64;25.51;101257.00;5064118;28;1055;-19
2023/02/20 08:31:54;;;;;;;;;;;;;;;27.05;25.08;101268.84;5065020;28;1187;-19
2023/02/20 08:34:20;;;;;;;;;;;;;;;27.15;24.84;101284.88;5062524;28;1060;-20
2023/02/20 08:36:45;;;;;;;;;;;;;;;27.35;24.36;101290.75;5072212;28;1080;-19
2023/02/20 08:39:10;;;;;;;;;;;;;;;27.20;23.67;101290.59;5055023;28;1223;-19
2023/02/20 08:41:41;;;;;;;;;;;;;;;27.18;24.03;101289.06;5064337;28;1196;-20
2023/02/20 08:44:06;;;;;;;;;;;;;;;26.41;25.14;101284.63;5077997;28;1906;-19
2023/02/20 08:46:31;;;;;;;;;;;;;;;26.79;24.70;101283.34;5052458;28;1156;-20
2023/02/20 08:48:56;;;;;;;;;;;;;;;26.87;24.72;101279.78;5068324;28;1084;-19
2023/02/20 08:51:22;;;;;;;;;;;;;;;27.17;23.80;101287.41;5064123;28;1164;-19
2023/02/20 08:53:47;;;;;;;;;;;;;;;27.22;23.77;101299.38;5057203;28;1183;-20
2023/02/20 08:56:16;;;;;;;;;;;;;;;27.48;23.49;101302.88;5063554;28;1147;-19
2023/02/20 08:58:41;;;;;;;;;;;;;;;26.99;23.86;101310.00;5068074;28;1242;-19
2023/02/20 09:01:06;;;;;;;;;;;;;;;26.78;24.03;101317.56;5065612;28;1196;-19
2023/02/20 09:03:33;;;;;;;;;;;;;;;26.59;24.78;101326.81;5060619;28;1202;-19
2023/02/20 09:05:58;;;;;;;;;;;;;;;26.63;24.47;101321.94;5067715;28;2001;-19
2023/02/20 09:08:24;;;;;;;;;;;;;;;26.68;24.53;101311.47;5064979;28;1309;-20
2023/02/20 09:10:49;;;;;;;;;;;;;;;26.86;23.98;101314.03;5074745;28;1091;-19
2023/02/20 09:13:14;;;;;;;;;;;;;;;26.62;24.33;101313.00;5063532;28;1097;-19
2023/02/20 09:15:40;;;;;;;;;;;;;;;26.24;25.13;101321.44;5068812;28;964;-19
2023/02/20 09:18:10;;;;;;;;;;;;;;;26.03;25.64;101314.66;5073109;28;875;-18
2023/02/20 09:20:36;;;;;;;;;;;;;;;26.29;25.21;101316.41;5044680;28;1055;-19
2023/02/20 09:23:01;;;;;;;;;;;;;;;26.55;24.69;101321.91;5067511;28;997;-19
2023/02/20 09:25:27;;;;;;;;;;;;;;;26.45;24.70;101347.19;5072450;28;1902;-20
2023/02/20 09:27:52;;;;;;;;;;;;;;;26.65;24.03;101333.41;5066653;28;1076;-20
2023/02/20 09:30:19;;;;;;;;;;;;;;;26.76;23.93;101330.38;5065309;28;1247;-20
2023/02/20 09:32:46;;;;;;;;;;;;;;;26.70;24.01;101316.72;5065341;28;1211;-20
2023/02/20 09:35:40;;;;;;;;;;;;;;;26.75;24.14;101342.19;5062986;28;1168;-19
2023/02/20 09:38:06;;;;;;;;;;;;;;;27.19;23.75;101344.78;5042405;28;1217;-20
2023/02/20 09:40:31;;;;;;;;;;;;;;;27.61;23.00;101348.31;5070814;28;1212;-19
2023/02/20 09:43:06;;;;;;;;;;;;;;;28.20;22.21;101355.25;5075969;28;1055;-19
2023/02/20 09:45:32;;;;;;;;;;;;;;;27.74;22.35;101347.81;5054785;28;1902;-19
2023/02/20 09:47:57;;;;;;;;;;;;;;;27.22;23.05;101349.84;5045431;28;1040;-19
2023/02/20 09:50:43;;;;;;;;;;;;;;;26.75;23.22;101350.31;5069309;28;1119;-19
2023/02/20 09:53:20;;;;;;;;;;;;;;;26.90;23.36;101355.88;5038284;28;1253;-19
2023/02/20 09:55:45;;;;;;;;;;;;;;;27.35;22.99;101360.13;5049027;28;1125;-19
2023/02/20 09:58:21;;;;;;;;;;;;;;;27.68;22.28;101354.72;5045281;28;1207;-19
2023/02/20 10:00:47;;;;;;;;;;;;;;;28.02;21.85;101366.31;5075408;28;842;-19
2023/02/20 10:03:20;;;;;;;;;;;;;;;27.70;22.42;101358.09;5070309;28;1055;-19
2023/02/20 10:05:45;;;;;;;;;;;;;;;27.41;22.65;101356.75;5037764;28;1979;-19
2023/02/20 10:08:10;;;;;;;;;;;;;;;27.86;21.96;101368.03;5038797;28;1067;-19
2023/02/20 10:10:37;;;;;;;;;;;;;;;27.98;21.86;101367.66;5052792;28;1267;-19
2023/02/20 10:13:15;;;;;;;;;;;;;;;28.32;21.14;101361.13;5060566;28;1081;-19
2023/02/20 10:16:00;;;;;;;;;;;;;;;28.33;21.32;101360.13;5057578;28;1029;-19
2023/02/20 10:18:41;;;;;;;;;;;;;;;29.07;20.73;101362.56;5063054;28;1171;-19
2023/02/20 10:21:09;;;;;;;;;;;;;;;29.53;19.91;101358.09;5044817;28;1156;-19
2023/02/20 10:23:35;;;;;;;;;;;;;;;28.70;20.71;101360.41;5065960;28;1191;-19
2023/02/20 10:26:01;;;;;;;;;;;;;;;27.27;22.37;101371.81;5064020;28;1967;-19
2023/02/20 10:28:27;;;;;;;;;;;;;;;28.23;21.85;101375.69;5052024;28;1239;-20
2023/02/20 10:31:01;;;;;;;;;;;;;;;28.40;21.77;101376.47;5066891;28;1262;-19
2023/02/20 10:33:29;;;;;;;;;;;;;;;28.50;21.68;101362.72;5049031;28;1243;-19
2023/02/20 10:35:56;;;;;;;;;;;;;;;28.89;20.92;101366.41;5043992;28;1180;-20
2023/02/20 10:38:23;;;;;;;;;;;;;;;28.32;21.86;101352.16;5045853;28;1271;-19
2023/02/20 10:40:51;;;;;;;;;;;;;;;29.13;20.77;101348.28;5045917;28;1215;-19
2023/02/20 10:43:31;;;;;;;;;;;;;;;27.43;22.26;101346.63;5047189;28;1212;-20
2023/02/20 10:45:58;;;;;;;;;;;;;;;28.02;22.40;101349.22;5065541;28;1894;-19
2023/02/20 10:48:25;;;;;;;;;;;;;;;29.27;20.63;101354.78;5072591;28;1363;-19
2023/02/20 10:50:59;;;;;;;;;;;;;;;29.45;20.72;101357.16;5054752;28;1281;-19
2023/02/20 10:53:26;;;;;;;;;;;;;;;29.43;20.30;101359.19;5054095;28;1164;-20
2023/02/20 10:56:10;;;;;;;;;;;;;;;29.09;20.97;101361.34;5068462;28;1313;-21
2023/02/20 10:58:44;;;;;;;;;;;;;;;28.66;21.44;101369.91;5065629;28;1028;-20
2023/02/20 11:01:10;;;;;;;;;;;;;;;27.46;21.83;101372.47;5067535;28;1223;-19
2023/02/20 11:03:48;;;;;;;;;;;;;;;27.18;23.02;101365.53;5054653;28;1242;-20
2023/02/20 11:06:14;;;;;;;;;;;;;;;28.68;21.33;101370.56;5071408;28;1989;-19
2023/02/20 11:08:40;;;;;;;;;;;;;;;29.15;20.97;101369.78;5078534;28;1194;-20
2023/02/20 11:11:20;;;;;;;;;;;;;;;29.26;20.78;101379.34;5076739;28;1096;-19
2023/02/20 11:13:45;;;;;;;;;;;;;;;28.90;21.32;101369.94;5078078;28;1032;-19
2023/02/20 11:16:16;;;;;;;;;;;;;;;28.55;21.63;101362.19;5077818;28;882;-20
2023/02/20 11:18:41;;;;;;;;;;;;;;;27.95;21.64;101351.78;5060502;28;1199;-19
2023/02/20 11:21:06;;;;;;;;;;;;;;;27.41;22.61;101350.53;5054894;28;1069;-20
2023/02/20 11:23:33;;;;;;;;;;;;;;;28.36;21.98;101350.81;5072521;28;1155;-20
2023/02/20 11:26:13;;;;;;;;;;;;;;;28.73;21.63;101348.38;5077899;28;1897;-20
2023/02/20 11:28:39;;;;;;;;;;;;;;;29.05;21.39;101351.06;5074218;28;1082;-19
2023/02/20 11:31:05;;;;;;;;;;;;;;;29.35;20.94;101356.56;5070555;28;1282;-19
2023/02/20 11:33:31;;;;;;;;;;;;;;;29.50;20.69;101353.88;5066616;28;1178;-19
2023/02/20 11:35:58;;;;;;;;;;;;;;;26.22;19.97;101357.69;5052506;28;933;-20
2023/02/20 11:38:27;;;;;;;;;;;;;;;24.47;20.44;101357.13;5066717;28;1135;-20
2023/02/20 11:40:53;;;;;;;;;;;;;;;24.11;21.39;101363.19;5077642;28;1158;-20
2023/02/20 11:43:24;;;;;;;;;;;;;;;23.65;21.31;101353.16;5066212;28;1250;-18
2023/02/20 11:45:53;;;;;;;;;;;;;;;26.37;19.09;101361.50;5075435;28;1901;-19
2023/02/20 11:48:19;;;;;;;;;;;;;;;27.36;18.01;101362.66;5076079;28;1202;-18
2023/02/20 11:50:44;;;;;;;;;;;;;;;27.78;17.68;101362.63;5076317;28;848;-18
2023/02/20 11:53:30;;;;;;;;;;;;;;;28.11;17.27;101354.44;5076315;28;1110;-18
2023/02/20 11:56:12;;;;;;;;;;;;;;;28.17;17.41;101355.59;5078095;28;789;-19
2023/02/20 11:58:37;;;;;;;;;;;;;;;28.11;20.32;101361.72;5074682;28;1178;-19
2023/02/20 12:01:03;;;;;;;;;;;;;;;27.94;21.14;101360.91;5076334;28;1164;-18
2023/02/20 12:03:29;;;;;;;;;;;;;;;25.54;26.76;101361.00;5076128;28;1123;-19
2023/02/20 12:05:54;;;;;;;;;;;;;;;26.33;24.40;101360.13;5075240;28;1972;-18
2023/02/20 12:08:25;;;;;;;;;;;;;;;27.16;22.26;101370.25;5076678;28;1009;-19
2023/02/20 12:10:52;;;;;;;;;;;;;;;27.41;21.81;101375.66;5077141;28;848;-19
2023/02/20 12:13:17;;;;;;;;;;;;;;;27.47;21.49;101366.91;5075114;28;1108;-19
2023/02/20 12:15:43;;;;;;;;;;;;;;;27.06;22.20;101366.91;5072107;28;955;-19
2023/02/20 12:18:08;;;;;;;;;;;;;;;26.70;22.31;101366.13;5053218;28;1263;-18
2023/02/20 12:20:34;;;;;;;;;;;;;;;26.98;21.17;101362.28;5071225;28;1255;-19
2023/02/20 12:23:22;;;;;;;;;;;;;;;27.56;20.41;101373.13;5052426;28;958;-19
2023/02/20 12:25:48;;;;;;;;;;;;;;;27.41;19.97;101372.13;5062440;28;1957;-20
2023/02/20 12:28:22;;;;;;;;;;;;;;;27.59;19.17;101370.06;5073154;28;1044;-20
2023/02/20 12:30:47;;;;;;;;;;;;;;;27.70;19.02;101371.63;5057049;28;900;-19
2023/02/20 12:33:36;;;;;;;;;;;;;;;26.08;19.67;101364.53;5063883;28;1040;-19
2023/02/20 12:36:01;;;;;;;;;;;;;;;25.95;19.86;101357.75;5065264;28;1187;-19
2023/02/20 12:38:26;;;;;;;;;;;;;;;27.00;18.76;101369.22;5062969;28;861;-18
2023/02/20 12:41:07;;;;;;;;;;;;;;;27.15;18.51;101374.00;5074608;28;876;-20
2023/02/20 12:43:51;;;;;;;;;;;;;;;27.14;18.11;101383.13;5076589;28;1147;-19
2023/02/20 12:46:42;;;;;;;;;;;;;;;26.95;18.02;101387.78;5070176;28;1959;-19
2023/02/20 12:49:07;;;;;;;;;;;;;;;27.29;17.96;101396.81;5047731;28;1166;-19
2023/02/20 12:51:39;;;;;;;;;;;;;;;28.02;17.25;101387.09;5071345;28;1179;-18
2023/02/20 12:54:04;;;;;;;;;;;;;;;27.82;17.36;101395.59;5066673;28;1093;-19
2023/02/20 12:56:37;;;;;;;;;;;;;;;28.18;16.98;101384.31;5064096;28;1226;-20
2023/02/20 12:59:02;;;;;;;;;;;;;;;28.42;17.44;101379.00;5067754;28;1241;-20
2023/02/20 13:01:27;;;;;;;;;;;;;;;28.06;18.56;101383.03;5072392;28;1341;-34
2023/02/20 13:03:52;;;;;;;;;;;;;;;28.32;18.38;101387.31;5068638;28;1219;-41